Time;durP1;ratioP1;P1;durP2;ratioP2;P2;SDS_P1;SDS_P2;PMS_P1;PMS_P2;Temp;Humidity;BMP_temperature;BMP_pressure;BME280_temperature;BME280_humidity;BME280_pressure;Samples;Min_cycle;Max_cycle;Signal;HPM_P1;HPM_P2
2022/09/07 00:00:51;;;;;;;14.95;3.13;;;;;;;;;;5055060;28;20543;-48
2022/09/07 00:03:18;;;;;;;9.55;3.03;;;;;;;;;;5054504;28;20661;-45
2022/09/07 00:05:46;;;;;;;17.25;3.40;;;;;;;;;;5053805;28;20017;-46
2022/09/07 00:08:13;;;;;;;10.13;2.95;;;;;;;;;;5053848;28;20027;-47
2022/09/07 00:10:39;;;;;;;13.77;3.60;;;;;;;;;;5053589;28;20056;-48
2022/09/07 00:13:06;;;;;;;15.93;3.40;;;;;;;;;;5054014;28;20025;-49
2022/09/07 00:15:32;;;;;;;16.17;3.92;;;;;;;;;;5055156;28;20430;-45
2022/09/07 00:17:58;;;;;;;11.93;2.97;;;;;;;;;;5055013;28;20377;-48
2022/09/07 00:20:24;;;;;;;11.50;3.47;;;;;;;;;;5053596;28;20099;-44
2022/09/07 00:22:50;;;;;;;13.95;3.35;;;;;;;;;;5054048;28;20460;-45
2022/09/07 00:25:15;;;;;;;17.20;3.70;;;;;;;;;;5059539;28;20024;-46
2022/09/07 00:27:41;;;;;;;17.88;4.05;;;;;;;;;;5055174;28;20039;-45
2022/09/07 00:30:07;;;;;;;15.75;3.55;;;;;;;;;;5050607;28;20441;-46
2022/09/07 00:32:33;;;;;;;17.55;3.45;;;;;;;;;;5051349;28;20028;-46
2022/09/07 00:34:58;;;;;;;17.10;3.47;;;;;;;;;;5058255;28;20377;-47
2022/09/07 00:37:24;;;;;;;11.55;3.67;;;;;;;;;;5056292;28;20044;-45
2022/09/07 00:39:50;;;;;;;14.20;3.70;;;;;;;;;;5057375;28;20385;-44
2022/09/07 00:42:18;;;;;;;17.88;3.53;;;;;;;;;;5054661;28;20559;-46
2022/09/07 00:45:06;;;;;;;14.82;4.07;;;;;;;;;;5054691;28;20033;-45
2022/09/07 00:47:41;;;;;;;17.05;3.25;;;;;;;;;;5057091;28;20498;-45
2022/09/07 00:50:16;;;;;;;14.68;3.20;;;;;;;;;;5046090;28;20044;-48
2022/09/07 00:52:45;;;;;;;12.45;3.63;;;;;;;;;;5053234;28;20062;-48
2022/09/07 00:55:13;;;;;;;16.95;3.55;;;;;;;;;;5043591;28;20025;-46
2022/09/07 00:57:43;;;;;;;14.20;3.83;;;;;;;;;;5035855;28;20049;-49
2022/09/07 01:00:11;;;;;;;13.55;3.97;;;;;;;;;;5032117;28;21591;-48
2022/09/07 01:02:37;;;;;;;19.25;3.67;;;;;;;;;;5031138;28;20041;-45
2022/09/07 01:05:13;;;;;;;15.10;3.90;;;;;;;;;;5037608;28;20025;-46
2022/09/07 01:07:38;;;;;;;10.98;3.47;;;;;;;;;;5031742;28;20630;-49
2022/09/07 01:10:05;;;;;;;13.38;4.03;;;;;;;;;;5036806;28;20469;-48
2022/09/07 01:12:31;;;;;;;8.88;3.83;;;;;;;;;;5030322;28;20028;-45
2022/09/07 01:14:56;;;;;;;12.88;3.60;;;;;;;;;;5037320;28;20025;-45
2022/09/07 01:17:40;;;;;;;14.65;3.63;;;;;;;;;;5036459;28;20029;-45
2022/09/07 01:20:35;;;;;;;16.30;3.58;;;;;;;;;;5031369;28;20473;-45
2022/09/07 01:23:00;;;;;;;10.98;3.00;;;;;;;;;;5032639;28;20374;-51
2022/09/07 01:25:39;;;;;;;7.53;2.95;;;;;;;;;;5034511;28;20037;-49
2022/09/07 01:28:32;;;;;;;14.88;3.50;;;;;;;;;;5034610;28;20061;-45
2022/09/07 01:31:10;;;;;;;10.05;2.97;;;;;;;;;;5035557;28;20026;-45
2022/09/07 01:33:59;;;;;;;11.10;3.20;;;;;;;;;;5033789;28;20474;-49
2022/09/07 01:36:54;;;;;;;23.25;4.68;;;;;;;;;;5032397;28;20034;-45
2022/09/07 01:39:25;;;;;;;15.93;3.00;;;;;;;;;;5029470;28;20030;-50
2022/09/07 01:41:58;;;;;;;17.83;3.33;;;;;;;;;;5031330;28;20120;-47
2022/09/07 01:44:45;;;;;;;12.65;3.47;;;;;;;;;;5029584;28;20032;-45
2022/09/07 01:47:27;;;;;;;11.23;2.80;;;;;;;;;;5025120;28;20038;-49
2022/09/07 01:50:03;;;;;;;12.80;3.15;;;;;;;;;;5029630;28;20168;-48
2022/09/07 01:52:54;;;;;;;9.70;2.80;;;;;;;;;;5035388;28;20032;-45
2022/09/07 01:55:28;;;;;;;12.77;2.45;;;;;;;;;;5036444;28;20117;-46
2022/09/07 01:58:02;;;;;;;11.95;2.83;;;;;;;;;;5049096;28;20071;-48
2022/09/07 02:00:30;;;;;;;12.98;2.90;;;;;;;;;;5052781;28;20033;-45
2022/09/07 02:03:27;;;;;;;9.68;2.78;;;;;;;;;;5062337;28;20082;-43
2022/09/07 02:06:21;;;;;;;9.43;2.25;;;;;;;;;;4962678;28;20043;-49
2022/09/07 02:08:56;;;;;;;8.88;3.05;;;;;;;;;;4979588;28;20093;-49
2022/09/07 02:11:29;;;;;;;13.52;3.05;;;;;;;;;;4975081;28;20042;-46
2022/09/07 02:14:02;;;;;;;11.48;3.08;;;;;;;;;;4966343;28;20561;-46
2022/09/07 02:16:30;;;;;;;11.07;3.42;;;;;;;;;;4979656;28;20171;-47
2022/09/07 02:19:01;;;;;;;9.50;2.45;;;;;;;;;;4973747;28;20050;-51
2022/09/07 02:21:33;;;;;;;18.35;4.03;;;;;;;;;;4966578;28;20039;-45
2022/09/07 02:24:07;;;;;;;14.23;3.58;;;;;;;;;;4964945;28;20030;-49
2022/09/07 02:26:36;;;;;;;19.52;3.45;;;;;;;;;;4972252;28;20476;-48
2022/09/07 02:29:02;;;;;;;15.75;3.97;;;;;;;;;;4969490;28;20121;-48
2022/09/07 02:31:28;;;;;;;9.52;2.88;;;;;;;;;;4966165;28;20117;-47
2022/09/07 02:33:54;;;;;;;10.98;3.53;;;;;;;;;;4964990;28;20043;-46
2022/09/07 02:36:26;;;;;;;10.38;3.25;;;;;;;;;;4978082;28;20101;-48
2022/09/07 02:38:52;;;;;;;17.95;3.92;;;;;;;;;;4972110;28;20066;-49
2022/09/07 02:41:28;;;;;;;13.25;3.55;;;;;;;;;;4971206;28;20070;-45
2022/09/07 02:43:54;;;;;;;13.48;3.53;;;;;;;;;;5045273;28;20064;-51
2022/09/07 02:46:50;;;;;;;15.68;3.30;;;;;;;;;;5053467;28;20485;-48
2022/09/07 02:49:47;;;;;;;12.13;3.88;;;;;;;;;;5045071;28;20378;-46
2022/09/07 02:52:23;;;;;;;15.88;3.47;;;;;;;;;;5054336;28;20044;-44
2022/09/07 02:54:58;;;;;;;18.00;4.15;;;;;;;;;;5053372;28;20067;-48
2022/09/07 02:57:46;;;;;;;17.75;4.75;;;;;;;;;;5052024;28;20084;-48
2022/09/07 03:00:16;;;;;;;9.65;2.97;;;;;;;;;;5057432;28;20056;-48
2022/09/07 03:03:15;;;;;;;9.18;2.97;;;;;;;;;;5047205;28;20649;-52
2022/09/07 03:05:52;;;;;;;8.80;3.33;;;;;;;;;;4985414;28;20121;-47
2022/09/07 03:08:30;;;;;;;17.90;3.17;;;;;;;;;;4981342;28;20035;-48
2022/09/07 03:10:57;;;;;;;20.50;3.88;;;;;;;;;;4975382;28;20039;-48
2022/09/07 03:13:26;;;;;;;15.38;3.85;;;;;;;;;;4992906;28;20033;-48
2022/09/07 03:15:52;;;;;;;11.57;3.20;;;;;;;;;;4997415;28;20057;-51
2022/09/07 03:18:18;;;;;;;16.70;3.63;;;;;;;;;;4992213;28;20476;-52
2022/09/07 03:20:44;;;;;;;14.63;3.53;;;;;;;;;;4985015;28;20089;-51
2022/09/07 03:23:09;;;;;;;9.38;3.30;;;;;;;;;;4992175;28;20054;-48
2022/09/07 03:25:35;;;;;;;10.93;3.20;;;;;;;;;;4991803;28;20037;-47
2022/09/07 03:28:01;;;;;;;11.98;3.53;;;;;;;;;;4998896;28;20038;-52
2022/09/07 03:30:26;;;;;;;13.75;3.83;;;;;;;;;;4990624;28;20500;-48
2022/09/07 03:32:52;;;;;;;8.32;3.13;;;;;;;;;;4997247;28;20080;-48
2022/09/07 03:35:17;;;;;;;12.82;3.40;;;;;;;;;;4998296;28;20403;-50
2022/09/07 03:37:43;;;;;;;16.40;4.25;;;;;;;;;;4984843;28;20064;-47
2022/09/07 03:40:11;;;;;;;17.33;3.78;;;;;;;;;;4989694;28;20534;-48
2022/09/07 03:42:37;;;;;;;8.40;3.33;;;;;;;;;;5030145;28;20064;-48
2022/09/07 03:45:05;;;;;;;9.20;3.30;;;;;;;;;;5056721;28;20017;-49
2022/09/07 03:47:35;;;;;;;11.93;3.60;;;;;;;;;;5050451;28;20493;-51
2022/09/07 03:50:02;;;;;;;18.67;3.67;;;;;;;;;;5057263;28;20120;-48
2022/09/07 03:52:28;;;;;;;11.38;3.65;;;;;;;;;;5052943;28;20029;-47
2022/09/07 03:54:53;;;;;;;19.50;3.95;;;;;;;;;;5054633;28;20033;-45
2022/09/07 03:57:19;;;;;;;12.38;3.42;;;;;;;;;;5054506;28;20119;-47
2022/09/07 03:59:46;;;;;;;16.13;4.07;;;;;;;;;;5052643;28;20028;-49
2022/09/07 04:02:12;;;;;;;13.10;3.78;;;;;;;;;;5057895;28;20025;-44
2022/09/07 04:04:38;;;;;;;14.27;4.47;;;;;;;;;;5054019;28;20025;-49
2022/09/07 04:07:05;;;;;;;13.65;3.63;;;;;;;;;;5055263;28;20482;-47
2022/09/07 04:09:31;;;;;;;13.85;3.90;;;;;;;;;;5053463;28;20032;-46
2022/09/07 04:11:56;;;;;;;12.07;3.05;;;;;;;;;;5048252;28;20042;-48
2022/09/07 04:14:22;;;;;;;14.80;3.55;;;;;;;;;;5049971;28;20029;-49
2022/09/07 04:16:48;;;;;;;14.48;4.22;;;;;;;;;;5048480;28;20066;-48
2022/09/07 04:19:13;;;;;;;15.70;3.50;;;;;;;;;;5056134;28;20489;-46
2022/09/07 04:21:39;;;;;;;13.48;3.75;;;;;;;;;;5057094;28;20077;-49
2022/09/07 04:24:05;;;;;;;9.60;3.03;;;;;;;;;;5050608;28;20032;-48
2022/09/07 04:26:34;;;;;;;17.65;3.53;;;;;;;;;;5052945;28;20029;-44
2022/09/07 04:29:00;;;;;;;15.88;4.40;;;;;;;;;;5051699;28;20032;-44
2022/09/07 04:31:25;;;;;;;14.40;4.18;;;;;;;;;;5051184;28;20033;-45
2022/09/07 04:33:52;;;;;;;15.55;4.57;;;;;;;;;;5055463;28;20024;-51
2022/09/07 04:36:19;;;;;;;16.20;3.33;;;;;;;;;;5045333;28;20041;-47
2022/09/07 04:38:45;;;;;;;18.80;4.15;;;;;;;;;;5046852;28;20063;-44
2022/09/07 04:41:15;;;;;;;13.82;3.35;;;;;;;;;;5052522;28;20036;-45
2022/09/07 04:43:42;;;;;;;16.10;4.38;;;;;;;;;;5050453;28;20033;-47
2022/09/07 04:46:16;;;;;;;15.00;3.08;;;;;;;;;;5050661;28;20380;-44
2022/09/07 04:48:42;;;;;;;16.77;3.30;;;;;;;;;;5054103;28;20044;-48
2022/09/07 04:51:09;;;;;;;15.02;3.75;;;;;;;;;;5053475;28;20080;-45
2022/09/07 04:53:36;;;;;;;15.18;3.42;;;;;;;;;;5048180;28;20064;-46
2022/09/07 04:56:02;;;;;;;14.32;3.55;;;;;;;;;;5045378;28;20428;-50
2022/09/07 04:58:29;;;;;;;13.98;3.45;;;;;;;;;;5050721;28;20083;-47
2022/09/07 05:00:59;;;;;;;17.90;4.30;;;;;;;;;;5050301;28;20029;-45
2022/09/07 05:03:25;;;;;;;17.50;4.03;;;;;;;;;;5040297;28;20029;-46
2022/09/07 05:05:51;;;;;;;18.65;3.80;;;;;;;;;;5040275;28;20432;-45
2022/09/07 05:08:16;;;;;;;17.40;3.35;;;;;;;;;;5036145;28;20040;-45
2022/09/07 05:10:53;;;;;;;13.85;4.22;;;;;;;;;;5040388;28;20486;-45
2022/09/07 05:13:19;;;;;;;14.75;4.05;;;;;;;;;;5041663;28;20688;-49
2022/09/07 05:15:45;;;;;;;18.88;3.78;;;;;;;;;;5041200;28;20025;-44
2022/09/07 05:18:12;;;;;;;22.83;3.97;;;;;;;;;;5041114;28;20041;-46
2022/09/07 05:20:39;;;;;;;23.30;4.25;;;;;;;;;;5039507;28;20028;-47
2022/09/07 05:23:04;;;;;;;12.43;3.78;;;;;;;;;;5039111;28;20051;-45
2022/09/07 05:25:30;;;;;;;9.95;3.03;;;;;;;;;;5042270;28;20033;-45
2022/09/07 05:27:56;;;;;;;19.17;3.88;;;;;;;;;;5045641;28;20041;-45
2022/09/07 05:30:22;;;;;;;17.38;3.80;;;;;;;;;;5054131;28;20127;-46
2022/09/07 05:32:48;;;;;;;16.50;3.40;;;;;;;;;;5045271;28;20374;-48
2022/09/07 05:35:13;;;;;;;13.55;3.88;;;;;;;;;;5050183;28;20025;-45
2022/09/07 05:37:40;;;;;;;17.30;3.50;;;;;;;;;;5054865;28;20047;-47
2022/09/07 05:40:06;;;;;;;18.05;3.38;;;;;;;;;;5053349;28;20456;-48
2022/09/07 05:42:34;;;;;;;18.00;3.63;;;;;;;;;;5032216;28;20632;-51
2022/09/07 05:44:59;;;;;;;20.55;4.10;;;;;;;;;;5049616;28;20056;-45
2022/09/07 05:47:26;;;;;;;19.85;4.25;;;;;;;;;;5059020;28;20486;-46
2022/09/07 05:49:53;;;;;;;20.27;3.95;;;;;;;;;;5056370;28;20056;-46
2022/09/07 05:52:19;;;;;;;10.70;3.33;;;;;;;;;;5058874;28;20036;-46
2022/09/07 05:54:46;;;;;;;12.48;3.55;;;;;;;;;;5057039;28;20037;-46
2022/09/07 05:57:11;;;;;;;23.42;3.88;;;;;;;;;;5054236;28;20040;-49
2022/09/07 05:59:37;;;;;;;22.20;4.20;;;;;;;;;;5051774;28;20714;-44
2022/09/07 06:02:03;;;;;;;14.52;3.33;;;;;;;;;;5054636;28;20558;-45
2022/09/07 06:04:28;;;;;;;19.45;3.40;;;;;;;;;;5056287;28;20026;-45
2022/09/07 06:06:54;;;;;;;15.85;3.58;;;;;;;;;;5055030;28;20100;-45
2022/09/07 06:09:20;;;;;;;14.05;3.85;;;;;;;;;;5053854;28;20087;-48
2022/09/07 06:11:45;;;;;;;18.02;3.30;;;;;;;;;;5051601;28;20028;-44
2022/09/07 06:14:11;;;;;;;23.50;3.45;;;;;;;;;;5056971;28;20040;-46
2022/09/07 06:16:36;;;;;;;12.27;3.60;;;;;;;;;;5053341;28;20033;-45
2022/09/07 06:19:06;;;;;;;14.35;3.22;;;;;;;;;;5056440;28;20032;-45
2022/09/07 06:21:36;;;;;;;16.80;4.22;;;;;;;;;;5052133;28;20025;-44
2022/09/07 06:24:03;;;;;;;11.40;3.47;;;;;;;;;;5051149;28;20094;-46
2022/09/07 06:26:29;;;;;;;12.70;3.33;;;;;;;;;;5056315;28;20029;-44
2022/09/07 06:28:55;;;;;;;17.38;3.67;;;;;;;;;;5055729;28;20036;-45
2022/09/07 06:31:22;;;;;;;13.57;2.97;;;;;;;;;;5057483;28;20482;-46
2022/09/07 06:33:49;;;;;;;20.77;3.90;;;;;;;;;;5053362;28;20082;-45
2022/09/07 06:36:17;;;;;;;13.75;3.42;;;;;;;;;;5054425;28;20031;-44
2022/09/07 06:38:44;;;;;;;15.90;3.58;;;;;;;;;;5054961;28;20060;-45
2022/09/07 06:41:29;;;;;;;15.95;3.20;;;;;;;;;;5052011;28;20484;-44
2022/09/07 06:43:56;;;;;;;22.02;3.63;;;;;;;;;;5055174;28;20030;-45
2022/09/07 06:46:22;;;;;;;7.97;3.08;;;;;;;;;;5059619;28;20026;-44
2022/09/07 06:48:54;;;;;;;12.93;3.58;;;;;;;;;;5058398;28;20025;-45
2022/09/07 06:51:25;;;;;;;;;;;;;;;;;;5053785;28;20107;-46
2022/09/07 06:53:53;;;;;;;17.95;3.50;;;;;;;;;;5054967;28;19916;-44
2022/09/07 06:56:19;;;;;;;20.00;3.85;;;;;;;;;;5053020;28;20041;-45
2022/09/07 06:58:45;;;;;;;11.82;4.15;;;;;;;;;;5055447;28;20517;-44
2022/09/07 07:01:15;;;;;;;18.52;3.78;;;;;;;;;;5052801;28;20059;-47
2022/09/07 07:03:42;;;;;;;12.02;4.03;;;;;;;;;;5048006;28;20029;-45
2022/09/07 07:06:09;;;;;;;8.70;3.08;;;;;;;;;;5054319;28;20029;-45
2022/09/07 07:08:35;;;;;;;14.18;3.88;;;;;;;;;;5057279;28;21058;-45
2022/09/07 07:11:06;;;;;;;12.85;3.88;;;;;;;;;;5044956;28;20505;-49
2022/09/07 07:13:36;;;;;;;10.93;3.05;;;;;;;;;;5051962;28;20041;-47
2022/09/07 07:16:13;;;;;;;15.02;3.72;;;;;;;;;;5045273;28;20036;-49
2022/09/07 07:18:40;;;;;;;17.48;3.90;;;;;;;;;;5046819;28;20044;-44
2022/09/07 07:21:08;;;;;;;10.45;3.20;;;;;;;;;;5055408;28;20477;-47
2022/09/07 07:23:34;;;;;;;10.93;3.47;;;;;;;;;;5045908;28;20490;-48
2022/09/07 07:26:09;;;;;;;16.63;3.28;;;;;;;;;;5051127;28;20041;-47
2022/09/07 07:28:35;;;;;;;16.90;4.45;;;;;;;;;;5040835;28;20033;-45
2022/09/07 07:31:02;;;;;;;22.30;3.88;;;;;;;;;;5053702;28;20024;-45
2022/09/07 07:33:30;;;;;;;17.85;3.50;;;;;;;;;;5049605;28;20025;-47
2022/09/07 07:36:11;;;;;;;18.90;3.58;;;;;;;;;;5051414;28;20052;-48
2022/09/07 07:38:38;;;;;;;22.38;3.90;;;;;;;;;;5054292;28;20070;-47
2022/09/07 07:41:04;;;;;;;17.50;3.42;;;;;;;;;;5053249;28;20029;-48
2022/09/07 07:43:30;;;;;;;21.52;3.42;;;;;;;;;;5057878;28;20039;-44
2022/09/07 07:45:58;;;;;;;14.18;3.50;;;;;;;;;;5051324;28;20024;-49
2022/09/07 07:48:25;;;;;;;14.25;3.58;;;;;;;;;;5048251;28;20508;-46
2022/09/07 07:50:57;;;;;;;11.30;2.95;;;;;;;;;;5045335;28;20071;-50
2022/09/07 07:53:23;;;;;;;12.02;3.13;;;;;;;;;;5041650;28;20582;-46
2022/09/07 07:55:49;;;;;;;13.43;3.22;;;;;;;;;;5055931;28;20021;-46
2022/09/07 07:58:14;;;;;;;20.70;3.20;;;;;;;;;;5038132;28;20398;-47
2022/09/07 08:00:40;;;;;;;18.38;3.10;;;;;;;;;;5035581;28;20103;-52
2022/09/07 08:03:05;;;;;;;11.18;3.13;;;;;;;;;;5038200;28;20017;-50
2022/09/07 08:05:34;;;;;;;15.55;3.50;;;;;;;;;;5032688;28;20161;-45
2022/09/07 08:08:00;;;;;;;9.45;2.90;;;;;;;;;;5029399;28;20064;-47
2022/09/07 08:10:27;;;;;;;14.80;3.53;;;;;;;;;;5025183;28;20065;-45
2022/09/07 08:12:53;;;;;;;11.85;3.40;;;;;;;;;;5033996;28;20533;-45
2022/09/07 08:15:18;;;;;;;16.67;3.13;;;;;;;;;;5035714;28;20071;-50
2022/09/07 08:17:46;;;;;;;13.82;3.17;;;;;;;;;;5034551;28;20033;-47
2022/09/07 08:20:13;;;;;;;21.58;3.70;;;;;;;;;;5036341;28;20055;-48
2022/09/07 08:22:39;;;;;;;13.50;3.05;;;;;;;;;;5035787;28;20156;-50
2022/09/07 08:25:06;;;;;;;22.10;3.50;;;;;;;;;;5032780;28;20104;-46
2022/09/07 08:27:32;;;;;;;14.82;3.15;;;;;;;;;;5031714;28;20065;-49
2022/09/07 08:29:59;;;;;;;16.75;3.35;;;;;;;;;;5029173;28;20028;-45
2022/09/07 08:32:25;;;;;;;13.45;3.10;;;;;;;;;;5035147;28;20060;-46
2022/09/07 08:34:50;;;;;;;15.63;3.92;;;;;;;;;;5034079;28;20086;-48
2022/09/07 08:37:16;;;;;;;11.43;3.55;;;;;;;;;;5034303;28;20481;-46
2022/09/07 08:39:42;;;;;;;15.32;3.05;;;;;;;;;;5035551;28;20078;-48
2022/09/07 08:42:42;;;;;;;15.32;2.92;;;;;;;;;;5036780;28;20029;-47
2022/09/07 08:45:15;;;;;;;11.10;3.58;;;;;;;;;;5033267;28;20037;-50
2022/09/07 08:47:41;;;;;;;14.70;4.10;;;;;;;;;;5026457;28;20029;-48
2022/09/07 08:50:19;;;;;;;20.02;3.75;;;;;;;;;;5032675;28;20033;-50
2022/09/07 08:52:53;;;;;;;15.38;3.72;;;;;;;;;;5031028;28;20125;-47
2022/09/07 08:55:35;;;;;;;15.18;4.20;;;;;;;;;;5032667;28;20067;-50
2022/09/07 08:58:08;;;;;;;;;;;;;;;;;;5033411;28;20047;-47
2022/09/07 09:00:34;;;;;;;13.52;3.22;;;;;;;;;;5028806;28;20372;-50
2022/09/07 09:03:01;;;;;;;22.05;3.83;;;;;;;;;;5038953;28;20036;-45
2022/09/07 09:05:30;;;;;;;21.60;4.05;;;;;;;;;;5031422;28;20087;-49
2022/09/07 09:08:06;;;;;;;17.65;3.33;;;;;;;;;;5029205;28;20059;-46
2022/09/07 09:10:43;;;;;;;17.95;3.80;;;;;;;;;;5022595;28;20029;-50
2022/09/07 09:13:08;;;;;;;18.95;3.80;;;;;;;;;;5029930;28;20041;-46
2022/09/07 09:15:46;;;;;;;16.50;3.63;;;;;;;;;;5032816;28;20028;-51
2022/09/07 09:18:21;;;;;;;21.38;3.83;;;;;;;;;;5030196;28;20515;-47
2022/09/07 09:20:54;;;;;;;14.77;3.30;;;;;;;;;;5029027;28;20482;-51
2022/09/07 09:23:25;;;;;;;14.68;3.60;;;;;;;;;;5034317;28;20082;-49
2022/09/07 09:25:58;;;;;;;10.77;3.40;;;;;;;;;;5031511;28;20025;-47
2022/09/07 09:28:24;;;;;;;18.55;3.20;;;;;;;;;;5034244;28;20135;-47
2022/09/07 09:30:50;;;;;;;16.92;3.40;;;;;;;;;;5034026;28;21866;-47
2022/09/07 09:33:20;;;;;;;23.83;3.92;;;;;;;;;;5034620;28;20024;-47
2022/09/07 09:35:50;;;;;;;17.45;3.83;;;;;;;;;;5033017;28;20025;-52
2022/09/07 09:38:28;;;;;;;15.90;3.63;;;;;;;;;;5032642;28;20108;-46
2022/09/07 09:41:13;;;;;;;18.02;3.97;;;;;;;;;;5031928;28;20057;-50
2022/09/07 09:43:55;;;;;;;16.50;3.53;;;;;;;;;;5032011;28;20025;-48
2022/09/07 09:46:32;;;;;;;10.93;3.35;;;;;;;;;;5033601;28;20032;-45
2022/09/07 09:49:05;;;;;;;17.27;3.17;;;;;;;;;;5028783;28;20025;-45
2022/09/07 09:51:41;;;;;;;12.95;3.28;;;;;;;;;;5030790;28;20103;-45
2022/09/07 09:54:35;;;;;;;21.55;3.53;;;;;;;;;;5022628;28;20029;-46
2022/09/07 09:57:00;;;;;;;23.00;3.88;;;;;;;;;;5026165;28;20049;-48
2022/09/07 09:59:30;;;;;;;19.00;3.83;;;;;;;;;;5036427;28;20033;-46
2022/09/07 10:01:56;;;;;;;21.52;3.47;;;;;;;;;;5028381;28;20033;-48
2022/09/07 10:04:31;;;;;;;9.25;3.08;;;;;;;;;;5035872;28;20025;-45
2022/09/07 10:07:20;;;;;;;11.45;3.13;;;;;;;;;;5032284;28;20417;-46
2022/09/07 10:09:51;;;;;;;13.10;3.40;;;;;;;;;;5041159;28;20029;-46
2022/09/07 10:12:33;;;;;;;12.93;3.03;;;;;;;;;;5027292;28;20059;-48
2022/09/07 10:15:01;;;;;;;13.52;3.08;;;;;;;;;;5036535;28;20029;-47
2022/09/07 10:17:36;;;;;;;25.10;3.60;;;;;;;;;;5038785;28;20479;-45
2022/09/07 10:20:21;;;;;;;19.38;3.42;;;;;;;;;;5035412;28;20580;-47
2022/09/07 10:22:52;;;;;;;13.85;3.20;;;;;;;;;;5030536;28;20559;-47
2022/09/07 10:25:27;;;;;;;;;;;;;;;;;;5040027;28;20044;-48
2022/09/07 10:28:20;;;;;;;15.23;3.25;;;;;;;;;;5023744;28;20323;-45
2022/09/07 10:31:07;;;;;;;9.55;2.85;;;;;;;;;;5028636;28;20099;-49
2022/09/07 10:33:49;;;;;;;11.05;3.00;;;;;;;;;;5021473;28;20128;-46
2022/09/07 10:36:41;;;;;;;14.05;3.28;;;;;;;;;;5027747;28;20416;-46
2022/09/07 10:39:11;;;;;;;;;;;;;;;;;;5038921;28;20121;-46
2022/09/07 10:41:42;;;;;;;12.88;3.03;;;;;;;;;;5032647;28;19917;-47
2022/09/07 10:44:20;;;;;;;18.77;3.10;;;;;;;;;;5014484;28;20044;-45
2022/09/07 10:47:06;;;;;;;21.05;3.15;;;;;;;;;;5035434;28;20534;-49
2022/09/07 10:49:41;;;;;;;11.80;2.85;;;;;;;;;;5037009;28;20082;-49
2022/09/07 10:52:33;;;;;;;11.15;3.00;;;;;;;;;;5027284;28;20495;-48
2022/09/07 10:55:19;;;;;;;9.05;2.75;;;;;;;;;;5032225;28;20045;-45
2022/09/07 10:58:00;;;;;;;9.32;2.60;;;;;;;;;;5043796;28;20089;-47
2022/09/07 11:00:34;;;;;;;14.00;3.28;;;;;;;;;;5045967;28;20052;-47
2022/09/07 11:03:31;;;;;;;15.27;3.78;;;;;;;;;;5042550;28;20037;-50
2022/09/07 11:06:00;;;;;;;11.50;2.65;;;;;;;;;;5043558;28;20047;-47
2022/09/07 11:08:57;;;;;;;10.77;3.25;;;;;;;;;;5046371;28;20034;-46
2022/09/07 11:11:31;;;;;;;10.05;3.60;;;;;;;;;;5039953;28;20091;-48
2022/09/07 11:14:04;;;;;;;11.00;2.85;;;;;;;;;;5045164;28;20033;-46
2022/09/07 11:16:34;;;;;;;14.15;3.03;;;;;;;;;;5046799;28;20033;-45
2022/09/07 11:19:09;;;;;;;9.93;2.75;;;;;;;;;;5045329;28;20385;-46
2022/09/07 11:22:02;;;;;;;10.13;3.08;;;;;;;;;;5046484;28;20445;-47
2022/09/07 11:24:36;;;;;;;13.85;2.75;;;;;;;;;;5045075;28;20060;-46
2022/09/07 11:27:11;;;;;;;9.13;2.53;;;;;;;;;;5043372;28;20497;-47
2022/09/07 11:29:45;;;;;;;13.70;2.72;;;;;;;;;;5043350;28;20079;-45
2022/09/07 11:32:26;;;;;;;12.35;2.97;;;;;;;;;;5042261;28;20029;-46
2022/09/07 11:35:06;;;;;;;10.68;2.83;;;;;;;;;;5044359;28;20351;-47
2022/09/07 11:37:45;;;;;;;16.92;3.13;;;;;;;;;;5046681;28;20491;-45
2022/09/07 11:40:23;;;;;;;14.77;3.05;;;;;;;;;;5047398;28;20039;-46
2022/09/07 11:43:17;;;;;;;16.23;3.03;;;;;;;;;;5046059;28;20037;-50
2022/09/07 11:45:50;;;;;;;14.25;3.10;;;;;;;;;;5042359;28;20032;-45
2022/09/07 11:48:34;;;;;;;8.95;2.92;;;;;;;;;;5046125;28;20057;-48
2022/09/07 11:51:04;;;;;;;18.33;3.20;;;;;;;;;;5042770;28;20036;-49
2022/09/07 11:53:41;;;;;;;11.18;3.20;;;;;;;;;;5041309;28;20108;-51
2022/09/07 11:56:16;;;;;;;14.35;3.35;;;;;;;;;;5045272;28;20037;-46
2022/09/07 11:58:55;;;;;;;14.63;3.10;;;;;;;;;;5060179;28;20071;-46
2022/09/07 12:01:23;;;;;;;14.10;3.20;;;;;;;;;;5051479;28;20036;-48
2022/09/07 12:04:03;;;;;;;10.43;2.90;;;;;;;;;;5051996;28;20040;-48
2022/09/07 12:06:37;;;;;;;14.35;3.08;;;;;;;;;;5053235;28;20068;-48
2022/09/07 12:09:45;;;;;;;9.63;3.30;;;;;;;;;;5051384;28;20030;-46
2022/09/07 12:12:20;;;;;;;16.20;3.40;;;;;;;;;;5051807;28;20037;-45
2022/09/07 12:14:54;;;;;;;12.98;3.35;;;;;;;;;;5054898;28;20093;-47
2022/09/07 12:17:43;;;;;;;13.35;3.25;;;;;;;;;;5051609;28;20208;-46
2022/09/07 12:20:08;;;;;;;10.00;3.10;;;;;;;;;;5048043;28;20037;-47
2022/09/07 12:22:34;;;;;;;10.90;2.92;;;;;;;;;;5044348;28;20029;-47
2022/09/07 12:25:07;;;;;;;9.40;3.13;;;;;;;;;;5042991;28;20029;-45
2022/09/07 12:27:33;;;;;;;14.43;3.35;;;;;;;;;;5049128;28;20501;-46
2022/09/07 12:30:01;;;;;;;9.88;3.05;;;;;;;;;;5048102;28;20029;-50
2022/09/07 12:32:46;;;;;;;23.50;3.67;;;;;;;;;;5045669;28;20033;-48
2022/09/07 12:35:27;;;;;;;14.02;3.63;;;;;;;;;;5059299;28;20025;-46
2022/09/07 12:37:54;;;;;;;16.05;3.15;;;;;;;;;;5046746;28;20034;-46
2022/09/07 12:40:34;;;;;;;12.90;3.15;;;;;;;;;;5059079;28;20040;-50
2022/09/07 12:43:12;;;;;;;14.23;3.13;;;;;;;;;;5052356;28;20473;-47
2022/09/07 12:45:38;;;;;;;17.40;3.53;;;;;;;;;;5048566;28;20122;-46
2022/09/07 12:48:15;;;;;;;11.25;2.95;;;;;;;;;;5052222;28;20063;-45
2022/09/07 12:51:03;;;;;;;16.92;3.47;;;;;;;;;;5051477;28;20059;-45
2022/09/07 12:54:06;;;;;;;13.18;3.30;;;;;;;;;;5050175;28;20033;-50
2022/09/07 12:56:54;;;;;;;7.32;2.70;;;;;;;;;;5045148;28;20048;-45
2022/09/07 12:59:40;;;;;;;13.38;3.20;;;;;;;;;;5043341;28;20044;-51
2022/09/07 13:02:09;;;;;;;14.32;3.13;;;;;;;;;;5042327;28;20108;-48
2022/09/07 13:04:53;;;;;;;16.67;3.30;;;;;;;;;;5044583;28;20033;-45
2022/09/07 13:07:38;;;;;;;11.63;3.08;;;;;;;;;;5043374;28;20108;-49
2022/09/07 13:10:35;;;;;;;10.35;2.55;;;;;;;;;;5044426;28;20497;-45
2022/09/07 13:13:06;;;;;;;9.63;2.97;;;;;;;;;;5044429;28;20055;-52
2022/09/07 13:15:46;;;;;;;13.35;3.50;;;;;;;;;;5042534;28;20029;-46
2022/09/07 13:18:27;;;;;;;18.80;3.45;;;;;;;;;;5045626;28;20033;-48
2022/09/07 13:21:13;;;;;;;11.95;3.50;;;;;;;;;;5043451;28;20499;-49
2022/09/07 13:24:20;;;;;;;11.27;2.90;;;;;;;;;;5043091;28;20470;-47
2022/09/07 13:26:56;;;;;;;11.70;3.15;;;;;;;;;;5041199;28;20536;-47
2022/09/07 13:29:41;;;;;;;14.32;3.40;;;;;;;;;;5044135;28;20477;-51
2022/09/07 13:32:18;;;;;;;19.08;3.17;;;;;;;;;;5043039;28;20052;-47
2022/09/07 13:34:53;;;;;;;16.80;3.60;;;;;;;;;;5041015;28;20091;-48
2022/09/07 13:37:23;;;;;;;11.55;3.15;;;;;;;;;;5040625;28;20032;-52
2022/09/07 13:39:53;;;;;;;10.10;2.75;;;;;;;;;;5043481;28;20079;-49
2022/09/07 13:42:26;;;;;;;19.55;3.22;;;;;;;;;;5042389;28;20178;-49
2022/09/07 13:44:55;;;;;;;13.20;2.90;;;;;;;;;;5045467;28;20056;-50
2022/09/07 13:47:30;;;;;;;16.10;3.42;;;;;;;;;;5048626;28;20029;-49
2022/09/07 13:50:31;;;;;;;21.38;3.38;;;;;;;;;;5047824;28;20083;-45
2022/09/07 13:53:02;;;;;;;12.85;3.40;;;;;;;;;;5046017;28;20032;-46
2022/09/07 13:55:40;;;;;;;14.55;3.90;;;;;;;;;;5043862;28;20148;-50
2022/09/07 13:58:33;;;;;;;12.48;3.42;;;;;;;;;;5044123;28;20137;-45
2022/09/07 14:01:03;;;;;;;17.75;3.08;;;;;;;;;;5045618;28;20100;-47
2022/09/07 14:03:36;;;;;;;13.52;2.80;;;;;;;;;;5046329;28;20094;-46
2022/09/07 14:06:15;;;;;;;15.80;2.97;;;;;;;;;;5045640;28;20314;-46
2022/09/07 14:08:46;;;;;;;17.98;3.83;;;;;;;;;;5047021;28;20495;-46
2022/09/07 14:11:40;;;;;;;15.70;3.25;;;;;;;;;;5043770;28;20049;-46
2022/09/07 14:14:16;;;;;;;12.25;3.25;;;;;;;;;;5039853;28;20040;-49
2022/09/07 14:17:00;;;;;;;18.58;2.92;;;;;;;;;;5046453;28;20029;-48
2022/09/07 14:19:46;;;;;;;14.43;2.95;;;;;;;;;;5048205;28;20108;-46
2022/09/07 14:22:19;;;;;;;13.82;3.28;;;;;;;;;;5047311;28;20021;-49
2022/09/07 14:24:51;;;;;;;16.50;3.00;;;;;;;;;;5047960;28;20032;-46
2022/09/07 14:27:44;;;;;;;21.42;3.92;;;;;;;;;;5045437;28;20495;-48
2022/09/07 14:30:23;;;;;;;12.15;3.20;;;;;;;;;;5043281;28;20040;-45
2022/09/07 14:32:52;;;;;;;13.45;3.33;;;;;;;;;;5045695;28;20102;-46
2022/09/07 14:35:20;;;;;;;14.20;2.80;;;;;;;;;;5046437;28;20025;-47
2022/09/07 14:37:46;;;;;;;11.43;3.00;;;;;;;;;;5046894;28;20135;-50
2022/09/07 14:40:18;;;;;;;18.35;3.40;;;;;;;;;;5045973;28;20478;-46
2022/09/07 14:42:44;;;;;;;17.20;3.60;;;;;;;;;;5046048;28;20025;-47
2022/09/07 14:45:35;;;;;;;16.58;3.67;;;;;;;;;;5047919;28;20087;-45
2022/09/07 14:48:11;;;;;;;16.65;3.38;;;;;;;;;;5044132;28;20393;-44
2022/09/07 14:50:38;;;;;;;9.52;2.97;;;;;;;;;;5047035;28;20803;-49
2022/09/07 14:53:07;;;;;;;17.17;4.15;;;;;;;;;;5042403;28;20397;-45
2022/09/07 14:55:41;;;;;;;14.35;3.33;;;;;;;;;;5042904;28;20429;-45
2022/09/07 14:58:12;;;;;;;19.85;4.00;;;;;;;;;;5055655;28;20041;-51
2022/09/07 15:00:39;;;;;;;;;;;;;;;;;;5054795;28;20029;-45
2022/09/07 15:03:24;;;;;;;15.45;3.17;;;;;;;;;;5054278;28;19958;-47
2022/09/07 15:05:50;;;;;;;15.32;3.47;;;;;;;;;;5054316;28;20081;-46